createdAt,value
2019-05-18T00:00:49.175Z,20.50
2019-05-18T00:03:18.343Z,27.60
2019-05-18T00:05:47.488Z,20.63
2019-05-18T00:08:16.547Z,26.20
2019-05-18T00:10:45.682Z,28.70
2019-05-18T00:13:14.731Z,24.73
2019-05-18T00:15:43.908Z,20.03
2019-05-18T00:18:13.021Z,24.10
2019-05-18T00:20:42.087Z,22.73
2019-05-18T00:23:11.215Z,24.33
2019-05-18T00:25:40.365Z,19.37
2019-05-18T00:28:09.490Z,43.27
2019-05-18T00:30:38.656Z,23.33
2019-05-18T00:33:07.794Z,26.40
2019-05-18T00:35:37.218Z,24.63
2019-05-18T00:38:06.395Z,25.47
2019-05-18T00:40:35.560Z,32.70
2019-05-18T00:43:04.978Z,34.63
2019-05-18T00:45:34.155Z,24.67
2019-05-18T00:48:03.331Z,21.63
2019-05-18T00:50:32.431Z,22.67
2019-05-18T00:53:01.637Z,22.37
2019-05-18T00:55:30.742Z,20.57
2019-05-18T00:58:00.179Z,21.40
2019-05-18T01:00:29.500Z,15.07
2019-05-18T01:02:58.522Z,17.90
2019-05-18T01:05:27.628Z,17.70
2019-05-18T01:07:56.635Z,20.37
2019-05-18T01:10:25.812Z,22.87
2019-05-18T01:12:55.000Z,22.50
2019-05-18T01:15:24.280Z,23.03
2019-05-18T01:17:57.478Z,23.80
2019-05-18T01:20:24.287Z,21.77
2019-05-18T01:22:53.472Z,19.80
2019-05-18T01:25:22.682Z,25.90
2019-05-18T01:27:51.666Z,21.80
2019-05-18T01:30:21.584Z,27.67
2019-05-18T01:32:50.652Z,25.27
2019-05-18T01:35:19.849Z,25.43
2019-05-18T01:37:48.935Z,26.83
2019-05-18T01:40:19.306Z,22.77
2019-05-18T01:42:48.505Z,17.93
2019-05-18T01:45:17.893Z,22.10
2019-05-18T01:47:47.021Z,21.53
2019-05-18T01:50:16.203Z,21.23
2019-05-18T01:52:45.324Z,23.50
2019-05-18T01:55:14.875Z,23.13
2019-05-18T01:57:44.008Z,18.60
2019-05-18T02:00:13.780Z,22.83
2019-05-18T02:02:42.787Z,22.07
2019-05-18T02:05:12.464Z,18.93
2019-05-18T02:07:41.586Z,20.33
2019-05-18T02:10:10.951Z,21.40
2019-05-18T02:12:39.978Z,21.50
2019-05-18T02:15:09.362Z,18.57
2019-05-18T02:17:38.533Z,22.57
2019-05-18T02:20:08.350Z,21.97
2019-05-18T02:22:37.457Z,22.60
2019-05-18T02:25:06.648Z,21.87
2019-05-18T02:27:35.743Z,19.93
2019-05-18T02:30:05.741Z,25.70
2019-05-18T02:32:34.873Z,19.77
2019-05-18T02:35:04.035Z,17.13
2019-05-18T02:37:33.095Z,20.13
2019-05-18T02:40:02.536Z,26.87
2019-05-18T02:42:31.998Z,24.80
2019-05-18T02:45:01.176Z,20.77
2019-05-18T02:47:30.305Z,27.10
2019-05-18T02:49:59.368Z,24.20
2019-05-18T02:52:28.421Z,23.83
2019-05-18T02:54:57.560Z,23.50
2019-05-18T02:57:26.743Z,24.83
2019-05-18T02:59:55.902Z,21.47
2019-05-18T03:02:24.915Z,24.87
2019-05-18T03:04:54.116Z,21.70
2019-05-18T03:07:23.276Z,26.37
2019-05-18T03:09:52.545Z,33.27
2019-05-18T03:12:21.674Z,26.57
2019-05-18T03:14:50.874Z,26.60
2019-05-18T03:17:20.004Z,27.97
2019-05-18T03:19:49.167Z,25.37
2019-05-18T03:22:18.365Z,27.87
2019-05-18T03:24:47.355Z,27.80
2019-05-18T03:27:16.459Z,28.17
2019-05-18T03:29:45.612Z,42.20
2019-05-18T03:32:15.008Z,25.80
2019-05-18T03:34:44.058Z,27.67
2019-05-18T03:37:13.146Z,26.00
2019-05-18T03:39:42.336Z,28.07
2019-05-18T03:42:11.679Z,30.90
2019-05-18T03:44:40.769Z,29.33
2019-05-18T03:47:09.867Z,28.00
2019-05-18T03:49:38.940Z,28.93
2019-05-18T03:52:08.132Z,25.33
2019-05-18T03:54:37.320Z,29.97
2019-05-18T03:57:06.351Z,21.00
2019-05-18T03:59:35.453Z,21.37
2019-05-18T04:02:04.583Z,18.70
2019-05-18T04:04:33.700Z,24.63
2019-05-18T04:07:02.766Z,21.10
2019-05-18T04:09:31.891Z,21.10
2019-05-18T04:12:00.986Z,19.47
2019-05-18T04:14:30.094Z,17.57
2019-05-18T04:16:59.096Z,20.17
2019-05-18T04:19:44.852Z,22.00
2019-05-18T04:21:59.195Z,14.60
2019-05-18T04:24:28.271Z,12.77
2019-05-18T04:26:57.345Z,14.20
2019-05-18T04:29:26.699Z,16.80
2019-05-18T04:31:55.772Z,13.10
2019-05-18T04:34:24.870Z,16.23
2019-05-18T04:36:54.263Z,17.03
2019-05-18T04:39:23.350Z,12.40
2019-05-18T04:41:52.360Z,11.80
2019-05-18T04:44:21.533Z,13.10
2019-05-18T04:46:50.745Z,10.87
2019-05-18T04:49:19.903Z,11.57
2019-05-18T04:51:49.356Z,17.37
2019-05-18T04:54:18.688Z,12.53
2019-05-18T04:56:47.743Z,11.60
2019-05-18T04:59:16.831Z,12.00
2019-05-18T05:01:46.027Z,13.47
2019-05-18T05:04:15.400Z,10.03
2019-05-18T05:06:44.419Z,12.30
2019-05-18T05:09:13.554Z,15.60
2019-05-18T05:11:42.567Z,11.00
2019-05-18T05:14:11.636Z,9.80
2019-05-18T05:16:40.680Z,10.10
2019-05-18T05:19:09.695Z,9.30
2019-05-18T05:21:38.687Z,10.00
2019-05-18T05:24:07.789Z,10.00
2019-05-18T05:26:39.441Z,11.10
2019-05-18T05:29:07.668Z,14.23
2019-05-18T05:31:36.716Z,10.00
2019-05-18T05:34:05.896Z,9.47
2019-05-18T05:36:35.164Z,9.50
2019-05-18T05:39:06.047Z,8.80
2019-05-18T05:41:35.504Z,17.30
2019-05-18T05:44:04.697Z,9.47
2019-05-18T05:46:33.718Z,10.37
2019-05-18T05:49:02.841Z,9.33
2019-05-18T05:51:32.006Z,13.57
2019-05-18T05:54:01.452Z,12.23
2019-05-18T05:56:30.581Z,9.43
2019-05-18T05:58:59.571Z,9.30
2019-05-18T06:01:28.663Z,12.50
2019-05-18T06:03:57.700Z,11.13
2019-05-18T06:06:26.728Z,14.33
2019-05-18T06:08:55.805Z,10.10
2019-05-18T06:11:24.843Z,10.90
2019-05-18T06:13:54.006Z,7.97
2019-05-18T06:16:23.154Z,9.10
2019-05-18T06:18:52.302Z,9.17
2019-05-18T06:21:21.296Z,12.40
2019-05-18T06:23:50.425Z,8.57
2019-05-18T06:26:19.499Z,9.50
2019-05-18T06:28:48.590Z,10.33
2019-05-18T06:31:17.654Z,9.57
2019-05-18T06:33:46.978Z,8.60
2019-05-18T06:36:16.135Z,7.63
2019-05-18T06:38:45.177Z,8.33
2019-05-18T06:41:14.283Z,7.97
2019-05-18T06:43:43.389Z,10.07
2019-05-18T06:46:12.508Z,13.00
2019-05-18T06:48:41.572Z,8.53
2019-05-18T06:51:10.668Z,10.00
2019-05-18T06:53:39.768Z,9.03
2019-05-18T06:56:08.911Z,8.40
2019-05-18T06:58:38.655Z,11.53
2019-05-18T07:01:07.854Z,15.50
2019-05-18T07:03:37.032Z,11.13
2019-05-18T07:06:06.107Z,9.07
2019-05-18T07:08:35.512Z,8.57
2019-05-18T07:11:04.643Z,11.67
2019-05-18T07:13:33.844Z,10.30
2019-05-18T07:16:02.876Z,9.63
2019-05-18T07:18:31.984Z,9.73
2019-05-18T07:21:01.274Z,13.23
2019-05-18T07:23:30.431Z,9.87
2019-05-18T07:25:59.473Z,9.33
2019-05-18T07:28:28.648Z,9.83
2019-05-18T07:30:57.677Z,9.53
2019-05-18T07:33:27.156Z,8.00
2019-05-18T07:35:56.247Z,11.23
2019-05-18T07:38:25.323Z,15.63
2019-05-18T07:40:54.402Z,11.23
2019-05-18T07:43:23.516Z,12.13
2019-05-18T07:45:52.689Z,12.77
2019-05-18T07:48:21.827Z,10.37
2019-05-18T07:50:50.920Z,9.40
2019-05-18T07:53:20.016Z,12.40
2019-05-18T07:55:49.038Z,11.27
2019-05-18T07:58:18.158Z,11.67
2019-05-18T08:00:47.211Z,11.80
2019-05-18T08:03:16.271Z,11.70
2019-05-18T08:05:45.388Z,10.27
2019-05-18T08:08:14.511Z,11.20
2019-05-18T08:10:43.912Z,17.07
2019-05-18T08:13:13.010Z,9.87
2019-05-18T08:15:42.176Z,9.83
2019-05-18T08:18:11.361Z,14.03
2019-05-18T08:20:40.859Z,11.80
2019-05-18T08:23:10.048Z,14.00
2019-05-18T08:25:39.110Z,11.00
2019-05-18T08:28:08.358Z,10.57
2019-05-18T08:30:37.556Z,13.60
2019-05-18T08:33:06.745Z,14.93
2019-05-18T08:35:35.955Z,12.17
2019-05-18T08:38:05.396Z,13.43
2019-05-18T08:40:34.483Z,14.57
2019-05-18T08:43:03.525Z,10.63
2019-05-18T08:45:32.983Z,11.50
2019-05-18T08:48:02.008Z,10.87
2019-05-18T08:50:31.135Z,9.13
2019-05-18T08:53:00.172Z,11.50
2019-05-18T08:55:29.364Z,9.73
2019-05-18T08:57:58.487Z,11.03
2019-05-18T09:00:27.675Z,11.10
2019-05-18T09:02:56.981Z,13.03
2019-05-18T09:05:26.147Z,10.90
2019-05-18T09:07:55.431Z,11.20
2019-05-18T09:10:24.504Z,9.30
2019-05-18T09:12:53.675Z,11.03
2019-05-18T09:15:22.964Z,10.67
2019-05-18T09:17:52.124Z,8.93
2019-05-18T09:20:21.296Z,9.10
2019-05-18T09:22:50.365Z,9.17
2019-05-18T09:25:19.814Z,11.27
2019-05-18T09:27:48.806Z,9.80
2019-05-18T09:30:18.316Z,10.10
2019-05-18T09:32:47.507Z,8.73
2019-05-18T09:35:16.743Z,12.93
2019-05-18T09:37:45.826Z,8.47
2019-05-18T09:40:16.163Z,8.63
2019-05-18T09:42:45.214Z,10.80
2019-05-18T09:45:14.683Z,12.97
2019-05-18T09:47:43.848Z,7.97
2019-05-18T09:50:14.036Z,18.13
2019-05-18T09:52:45.299Z,9.50
2019-05-18T09:55:14.360Z,10.70
2019-05-18T09:57:43.440Z,11.50
2019-05-18T10:00:13.286Z,9.10
2019-05-18T10:02:42.504Z,7.43
2019-05-18T10:05:12.031Z,14.13
2019-05-18T10:07:41.219Z,9.67
2019-05-18T10:10:10.628Z,8.10
2019-05-18T10:12:39.816Z,12.63
2019-05-18T10:15:09.171Z,6.60
2019-05-18T10:17:38.344Z,10.43
2019-05-18T10:20:08.469Z,7.60
2019-05-18T10:22:51.203Z,6.03
2019-05-18T10:25:08.776Z,7.33
2019-05-18T10:27:37.843Z,7.20
2019-05-18T10:30:07.534Z,7.57
2019-05-18T10:32:36.695Z,7.67
2019-05-18T10:35:06.036Z,10.47
2019-05-18T10:37:35.164Z,7.17
2019-05-18T10:40:04.726Z,5.90
2019-05-18T10:42:33.897Z,5.80
2019-05-18T10:45:02.976Z,6.20
2019-05-18T10:47:32.056Z,9.20
2019-05-18T10:50:01.179Z,7.77
2019-05-18T10:52:30.507Z,7.87
2019-05-18T10:54:59.680Z,9.87
2019-05-18T10:57:28.814Z,13.57
2019-05-18T10:59:57.971Z,9.40
2019-05-18T11:02:27.368Z,9.23
2019-05-18T11:04:56.513Z,9.77
2019-05-18T11:07:28.857Z,11.03
2019-05-18T11:09:56.460Z,7.23
2019-05-18T11:12:25.655Z,8.27
2019-05-18T11:14:54.828Z,9.10
2019-05-18T11:17:23.920Z,6.73
2019-05-18T11:19:53.074Z,9.40
2019-05-18T11:22:22.172Z,7.27
2019-05-18T11:24:51.571Z,12.43
2019-05-18T11:27:20.662Z,9.67
2019-05-18T11:29:49.852Z,8.23
2019-05-18T11:32:19.015Z,7.13
2019-05-18T11:34:48.161Z,14.53
2019-05-18T11:37:17.567Z,8.27
2019-05-18T11:39:46.715Z,8.37
2019-05-18T11:42:15.823Z,7.20
2019-05-18T11:44:44.851Z,9.27
2019-05-18T11:47:13.999Z,9.57
2019-05-18T11:49:43.055Z,7.47
2019-05-18T11:52:12.461Z,7.93
2019-05-18T11:54:41.628Z,7.73
2019-05-18T11:57:10.767Z,8.53
2019-05-18T11:59:39.937Z,7.73
2019-05-18T12:02:09.005Z,16.80
2019-05-18T12:04:38.076Z,7.50
2019-05-18T12:07:07.261Z,7.47
2019-05-18T12:09:36.373Z,12.10
2019-05-18T12:12:05.499Z,8.43
2019-05-18T12:14:34.674Z,10.43
2019-05-18T12:17:03.869Z,10.07
2019-05-18T12:19:33.071Z,8.07
2019-05-18T12:22:02.253Z,8.67
2019-05-18T12:24:31.291Z,10.47
2019-05-18T12:27:00.399Z,7.90
2019-05-18T12:29:29.495Z,13.47
2019-05-18T12:31:58.639Z,8.13
2019-05-18T12:34:27.761Z,8.13
2019-05-18T12:36:56.929Z,13.53
2019-05-18T12:39:26.007Z,8.13
2019-05-18T12:41:55.322Z,11.50
2019-05-18T12:44:24.771Z,9.50
2019-05-18T12:46:53.942Z,7.23
2019-05-18T12:49:23.172Z,7.83
2019-05-18T12:51:52.483Z,14.37
2019-05-18T12:54:29.214Z,9.43
2019-05-18T12:56:52.300Z,7.40
2019-05-18T12:59:21.504Z,7.83
2019-05-18T13:01:50.919Z,12.80
2019-05-18T13:04:20.125Z,11.00
2019-05-18T13:06:49.142Z,12.70
2019-05-18T13:09:18.606Z,9.93
2019-05-18T13:11:47.601Z,7.40
2019-05-18T13:14:16.703Z,10.43
2019-05-18T13:16:45.873Z,8.00
2019-05-18T13:19:15.048Z,9.00
2019-05-18T13:21:44.077Z,7.43
2019-05-18T13:24:13.151Z,10.87
2019-05-18T13:26:42.160Z,10.07
2019-05-18T13:29:11.308Z,34.33
2019-05-18T13:31:40.500Z,77.03
2019-05-18T13:34:09.637Z,28.40
2019-05-18T13:36:38.769Z,12.30
2019-05-18T13:39:08.211Z,11.00
2019-05-18T13:41:37.344Z,11.43
2019-05-18T13:44:06.544Z,24.47
2019-05-18T13:46:35.614Z,13.57
2019-05-18T13:49:04.702Z,21.70
2019-05-18T13:51:33.775Z,11.73
2019-05-18T13:54:03.000Z,8.73
2019-05-18T13:56:32.068Z,31.70
2019-05-18T13:59:01.306Z,19.33
2019-05-18T14:01:30.490Z,8.10
2019-05-18T14:03:59.610Z,10.73
2019-05-18T14:06:28.778Z,9.93
2019-05-18T14:08:57.808Z,9.77
2019-05-18T14:11:26.898Z,10.80
2019-05-18T14:13:56.246Z,8.47
2019-05-18T14:16:25.402Z,12.70
2019-05-18T14:18:54.739Z,10.40
2019-05-18T14:21:23.856Z,18.53
2019-05-18T14:23:52.997Z,8.50
2019-05-18T14:26:22.100Z,11.23
2019-05-18T14:28:51.227Z,11.50
2019-05-18T14:31:20.253Z,8.70
2019-05-18T14:33:49.360Z,8.37
2019-05-18T14:36:18.552Z,12.57
2019-05-18T14:38:47.640Z,13.27
2019-05-18T14:41:16.777Z,10.80
2019-05-18T14:43:45.785Z,21.13
2019-05-18T14:46:14.876Z,16.07
2019-05-18T14:48:44.298Z,14.10
2019-05-18T14:51:13.475Z,9.73
2019-05-18T14:53:42.665Z,12.13
2019-05-18T14:56:11.864Z,18.87
2019-05-18T14:58:40.930Z,14.77
2019-05-18T15:01:10.439Z,9.80
2019-05-18T15:03:39.773Z,10.73
2019-05-18T15:06:08.876Z,11.93
2019-05-18T15:08:37.969Z,10.53
2019-05-18T15:11:07.051Z,14.27
2019-05-18T15:13:36.199Z,16.83
2019-05-18T15:16:05.371Z,16.50
2019-05-18T15:18:34.510Z,8.93
2019-05-18T15:21:03.563Z,13.97
2019-05-18T15:23:32.651Z,10.73
2019-05-18T15:26:02.023Z,14.00
2019-05-18T15:28:31.172Z,20.80
2019-05-18T15:31:00.260Z,11.53
2019-05-18T15:33:29.377Z,13.30
2019-05-18T15:35:58.407Z,12.30
2019-05-18T15:38:27.856Z,15.20
2019-05-18T15:40:56.964Z,13.90
2019-05-18T15:43:26.041Z,16.97
2019-05-18T15:45:55.137Z,11.40
2019-05-18T15:48:24.394Z,13.37
2019-05-18T15:50:53.646Z,14.70
2019-05-18T15:53:23.231Z,14.23
2019-05-18T15:56:04.766Z,16.00
2019-05-18T15:58:23.068Z,14.13
2019-05-18T16:00:52.147Z,16.83
2019-05-18T16:03:21.325Z,15.03
2019-05-18T16:05:50.459Z,14.57
2019-05-18T16:08:19.687Z,18.03
2019-05-18T16:10:48.887Z,15.97
2019-05-18T16:13:17.975Z,25.53
2019-05-18T16:15:47.155Z,17.47
2019-05-18T16:18:17.232Z,15.40
2019-05-18T16:20:46.327Z,16.10
2019-05-18T16:23:15.514Z,15.37
2019-05-18T16:25:45.216Z,16.63
2019-05-18T16:28:14.367Z,15.93
2019-05-18T16:30:43.507Z,16.53
2019-05-18T16:33:12.753Z,18.00
2019-05-18T16:35:41.855Z,17.20
2019-05-18T16:38:10.947Z,22.30
2019-05-18T16:40:40.308Z,16.07
2019-05-18T16:43:09.548Z,14.17
2019-05-18T16:45:38.720Z,16.27
2019-05-18T16:48:07.871Z,18.60
2019-05-18T16:50:37.252Z,16.90
2019-05-18T16:53:06.692Z,15.80
2019-05-18T16:55:35.805Z,17.00
2019-05-18T16:58:04.959Z,18.37
2019-05-18T17:00:34.203Z,16.40
2019-05-18T17:03:03.344Z,24.03
2019-05-18T17:05:32.518Z,15.57
2019-05-18T17:08:01.651Z,16.20
2019-05-18T17:10:31.102Z,16.60
2019-05-18T17:13:00.476Z,15.63
2019-05-18T17:15:29.583Z,21.33
2019-05-18T17:17:58.688Z,18.77
2019-05-18T17:20:27.807Z,14.80
2019-05-18T17:22:57.187Z,19.40
2019-05-18T17:25:26.351Z,15.13
2019-05-18T17:27:55.467Z,14.53
2019-05-18T17:30:24.630Z,14.70
2019-05-18T17:32:53.785Z,15.00
2019-05-18T17:35:22.960Z,16.87
2019-05-18T17:37:52.128Z,16.20
2019-05-18T17:40:21.279Z,17.23
2019-05-18T17:42:50.684Z,16.70
2019-05-18T17:45:20.185Z,17.40
2019-05-18T17:47:49.344Z,20.00
2019-05-18T17:50:18.499Z,16.57
2019-05-18T17:52:47.708Z,13.27
2019-05-18T17:55:16.879Z,17.33
2019-05-18T17:57:46.622Z,15.43
2019-05-18T18:00:17.668Z,16.70
2019-05-18T18:02:48.253Z,13.30
2019-05-18T18:05:17.663Z,17.63
2019-05-18T18:07:46.774Z,18.00
2019-05-18T18:10:16.856Z,18.50
2019-05-18T18:12:45.903Z,19.10
2019-05-18T18:15:15.282Z,18.20
2019-05-18T18:17:44.662Z,29.90
2019-05-18T18:20:14.226Z,23.10
2019-05-18T18:22:43.338Z,36.27
2019-05-18T18:25:12.507Z,27.27
2019-05-18T18:27:41.531Z,20.90
2019-05-18T18:30:12.047Z,22.93
2019-05-18T18:32:41.202Z,16.43
2019-05-18T18:35:10.587Z,18.73
2019-05-18T18:37:40.061Z,21.27
2019-05-18T18:40:09.375Z,23.43
2019-05-18T18:42:38.536Z,23.20
2019-05-18T18:45:08.140Z,23.40
2019-05-18T18:47:37.268Z,57.43
2019-05-18T18:50:06.681Z,42.33
2019-05-18T18:52:36.136Z,43.57
2019-05-18T18:55:05.381Z,27.97
2019-05-18T18:57:41.425Z,26.67
2019-05-18T19:00:05.627Z,31.63
2019-05-18T19:02:34.797Z,33.80
2019-05-18T19:05:04.011Z,26.83
2019-05-18T19:07:34.044Z,28.43
2019-05-18T19:10:03.472Z,21.47
2019-05-18T19:12:32.656Z,24.33
2019-05-18T19:15:02.157Z,21.43
2019-05-18T19:17:31.167Z,21.53
2019-05-18T19:20:00.299Z,20.30
2019-05-18T19:22:29.348Z,19.67
2019-05-18T19:24:58.449Z,29.80
2019-05-18T19:27:27.528Z,22.73
2019-05-18T19:29:56.586Z,29.13
2019-05-18T19:32:25.716Z,21.00
2019-05-18T19:34:54.958Z,22.03
2019-05-18T19:37:26.414Z,21.27
2019-05-18T19:39:54.726Z,25.10
2019-05-18T19:42:23.845Z,31.53
2019-05-18T19:44:53.044Z,26.37
2019-05-18T19:47:22.191Z,25.50
2019-05-18T19:49:51.592Z,26.67
2019-05-18T19:52:20.738Z,35.43
2019-05-18T19:54:49.831Z,34.63
2019-05-18T19:57:18.970Z,27.87
2019-05-18T19:59:47.977Z,28.10
2019-05-18T20:02:18.464Z,27.67
2019-05-18T20:05:05.881Z,25.17
2019-05-18T20:07:19.455Z,30.67
2019-05-18T20:09:48.744Z,29.13
2019-05-18T20:12:17.899Z,35.27
2019-05-18T20:14:46.911Z,27.63
2019-05-18T20:17:16.111Z,27.70
2019-05-18T20:19:45.175Z,24.20
2019-05-18T20:22:14.327Z,30.73
2019-05-18T20:24:43.502Z,35.17
2019-05-18T20:27:12.800Z,36.63
2019-05-18T20:29:41.810Z,35.00
2019-05-18T20:32:10.899Z,41.73
2019-05-18T20:34:39.967Z,34.20
2019-05-18T20:37:09.015Z,35.50
2019-05-18T20:39:38.152Z,35.37
2019-05-18T20:42:07.256Z,36.97
2019-05-18T20:44:36.347Z,46.90
2019-05-18T20:47:05.415Z,53.50
2019-05-18T20:49:34.616Z,46.20
2019-05-18T20:52:03.801Z,44.97
2019-05-18T20:54:32.875Z,43.77
2019-05-18T20:57:02.059Z,43.63
2019-05-18T20:59:31.171Z,44.47
2019-05-18T21:02:00.320Z,40.23
2019-05-18T21:04:29.412Z,39.77
2019-05-18T21:06:58.474Z,36.27
2019-05-18T21:09:27.717Z,39.33
2019-05-18T21:11:56.939Z,39.80
2019-05-18T21:14:26.044Z,42.20
2019-05-18T21:16:55.055Z,47.87
2019-05-18T21:19:24.156Z,63.83
2019-05-18T21:21:53.336Z,69.10
2019-05-18T21:24:22.381Z,60.87
2019-05-18T21:26:51.675Z,47.33
2019-05-18T21:29:20.746Z,49.50
2019-05-18T21:31:49.880Z,40.13
2019-05-18T21:34:19.323Z,46.30
2019-05-18T21:36:48.362Z,45.50
2019-05-18T21:39:17.473Z,42.40
2019-05-18T21:41:46.714Z,44.73
2019-05-18T21:44:15.747Z,50.53
2019-05-18T21:46:44.859Z,47.90
2019-05-18T21:49:14.052Z,43.00
2019-05-18T21:51:43.224Z,45.33
2019-05-18T21:54:12.362Z,48.60
2019-05-18T21:56:41.824Z,45.63
2019-05-18T21:59:12.446Z,65.83
2019-05-18T22:01:41.686Z,55.40
2019-05-18T22:04:10.859Z,45.87
2019-05-18T22:06:40.116Z,49.00
2019-05-18T22:09:09.343Z,46.00
2019-05-18T22:11:38.399Z,56.80
2019-05-18T22:14:07.585Z,50.97
2019-05-18T22:16:36.680Z,45.20
2019-05-18T22:19:05.843Z,45.83
2019-05-18T22:21:35.251Z,42.67
2019-05-18T22:24:04.422Z,46.83
2019-05-18T22:26:33.500Z,46.87
2019-05-18T22:29:02.682Z,49.73
2019-05-18T22:31:31.759Z,46.50
2019-05-18T22:34:00.811Z,41.40
2019-05-18T22:36:29.910Z,42.00
2019-05-18T22:38:59.066Z,40.57
2019-05-18T22:41:28.218Z,43.43
2019-05-18T22:43:57.315Z,39.13
2019-05-18T22:46:26.315Z,40.90
2019-05-18T22:48:55.376Z,48.70
2019-05-18T22:51:24.468Z,41.03
2019-05-18T22:53:53.648Z,44.37
2019-05-18T22:56:22.815Z,42.13
2019-05-18T22:58:51.958Z,37.97
2019-05-18T23:01:20.982Z,43.90
2019-05-18T23:03:51.782Z,41.30
2019-05-18T23:06:20.671Z,40.87
2019-05-18T23:08:49.732Z,42.20
2019-05-18T23:11:18.917Z,42.53
2019-05-18T23:13:48.032Z,45.00
2019-05-18T23:16:17.043Z,48.03
2019-05-18T23:18:56.479Z,39.03
2019-05-18T23:21:17.130Z,40.27
2019-05-18T23:23:46.193Z,44.20
2019-05-18T23:26:15.259Z,48.57
2019-05-18T23:28:44.551Z,40.40
2019-05-18T23:31:13.992Z,44.53
2019-05-18T23:33:43.147Z,37.43
2019-05-18T23:36:12.864Z,39.50
2019-05-18T23:38:42.191Z,42.27
2019-05-18T23:41:11.267Z,43.37
2019-05-18T23:43:40.368Z,47.23
2019-05-18T23:46:09.544Z,38.37
2019-05-18T23:48:38.664Z,37.03
2019-05-18T23:51:07.837Z,48.27
2019-05-18T23:53:36.966Z,40.10
2019-05-18T23:56:06.127Z,53.73
2019-05-18T23:58:35.283Z,39.17
